sensor_id;sensor_type;location;lat;lon;timestamp;pressure;altitude;pressure_sealevel;temperature;humidity
62926;BME280;55732;52.248;-0.844;2023-04-27T00:01:09;101010.45;;;7.54;64.28
62926;BME280;55732;52.248;-0.844;2023-04-27T00:03:35;101015.31;;;7.52;64.44
62926;BME280;55732;52.248;-0.844;2023-04-27T00:06:00;101012.77;;;7.48;64.52
62926;BME280;55732;52.248;-0.844;2023-04-27T00:08:26;101009.58;;;7.46;64.64
62926;BME280;55732;52.248;-0.844;2023-04-27T00:10:51;101008.66;;;7.42;64.81
62926;BME280;55732;52.248;-0.844;2023-04-27T00:13:17;101005.39;;;7.37;64.91
62926;BME280;55732;52.248;-0.844;2023-04-27T00:15:42;101003.73;;;7.34;65.14
62926;BME280;55732;52.248;-0.844;2023-04-27T00:18:09;100997.36;;;7.29;65.24
62926;BME280;55732;52.248;-0.844;2023-04-27T00:20:35;100997.29;;;7.25;65.40
62926;BME280;55732;52.248;-0.844;2023-04-27T00:23:00;100992.13;;;7.21;65.55
62926;BME280;55732;52.248;-0.844;2023-04-27T00:25:25;100989.46;;;7.18;65.74
62926;BME280;55732;52.248;-0.844;2023-04-27T00:27:51;100984.98;;;7.13;65.86
62926;BME280;55732;52.248;-0.844;2023-04-27T00:30:16;100986.80;;;7.08;66.24
62926;BME280;55732;52.248;-0.844;2023-04-27T00:32:42;100986.91;;;7.04;66.36
62926;BME280;55732;52.248;-0.844;2023-04-27T00:35:08;100989.95;;;6.99;66.51
62926;BME280;55732;52.248;-0.844;2023-04-27T00:37:33;100981.13;;;6.95;66.67
62926;BME280;55732;52.248;-0.844;2023-04-27T00:39:58;100978.08;;;6.91;66.80
62926;BME280;55732;52.248;-0.844;2023-04-27T00:42:24;100979.58;;;6.88;67.15
62926;BME280;55732;52.248;-0.844;2023-04-27T00:44:49;100977.79;;;6.86;67.12
62926;BME280;55732;52.248;-0.844;2023-04-27T00:47:15;100971.80;;;6.85;67.25
62926;BME280;55732;52.248;-0.844;2023-04-27T00:49:41;100966.72;;;6.83;67.24
62926;BME280;55732;52.248;-0.844;2023-04-27T00:52:07;100965.98;;;6.82;67.29
62926;BME280;55732;52.248;-0.844;2023-04-27T00:54:32;100966.32;;;6.81;67.39
62926;BME280;55732;52.248;-0.844;2023-04-27T00:56:58;100966.61;;;6.79;67.63
62926;BME280;55732;52.248;-0.844;2023-04-27T00:59:23;100962.55;;;6.77;67.76
62926;BME280;55732;52.248;-0.844;2023-04-27T01:01:49;100959.50;;;6.73;68.10
62926;BME280;55732;52.248;-0.844;2023-04-27T01:04:15;100959.38;;;6.67;68.17
62926;BME280;55732;52.248;-0.844;2023-04-27T01:06:42;100953.83;;;6.61;68.27
62926;BME280;55732;52.248;-0.844;2023-04-27T01:09:07;100954.24;;;6.55;68.52
62926;BME280;55732;52.248;-0.844;2023-04-27T01:11:33;100951.34;;;6.51;68.71
62926;BME280;55732;52.248;-0.844;2023-04-27T01:14:03;100947.27;;;6.48;68.87
62926;BME280;55732;52.248;-0.844;2023-04-27T01:16:30;100946.19;;;6.47;68.88
62926;BME280;55732;52.248;-0.844;2023-04-27T01:18:56;100944.94;;;6.45;68.87
62926;BME280;55732;52.248;-0.844;2023-04-27T01:21:21;100941.39;;;6.43;69.07
62926;BME280;55732;52.248;-0.844;2023-04-27T01:23:47;100943.45;;;6.42;69.21
62926;BME280;55732;52.248;-0.844;2023-04-27T01:26:12;100946.91;;;6.40;69.29
62926;BME280;55732;52.248;-0.844;2023-04-27T01:28:41;100943.38;;;6.38;69.42
62926;BME280;55732;52.248;-0.844;2023-04-27T01:31:07;100943.49;;;6.35;69.64
62926;BME280;55732;52.248;-0.844;2023-04-27T01:33:33;100949.35;;;6.31;69.62
62926;BME280;55732;52.248;-0.844;2023-04-27T01:35:59;100950.66;;;6.28;69.62
62926;BME280;55732;52.248;-0.844;2023-04-27T01:38:25;100949.22;;;6.25;69.90
62926;BME280;55732;52.248;-0.844;2023-04-27T01:40:50;100958.43;;;6.22;70.05
62926;BME280;55732;52.248;-0.844;2023-04-27T01:43:15;100965.53;;;6.20;70.15
62926;BME280;55732;52.248;-0.844;2023-04-27T01:48:12;100967.19;;;6.16;70.32
62926;BME280;55732;52.248;-0.844;2023-04-27T01:50:37;100962.60;;;6.14;70.55
62926;BME280;55732;52.248;-0.844;2023-04-27T01:53:03;100958.70;;;6.11;70.61
62926;BME280;55732;52.248;-0.844;2023-04-27T01:55:28;100960.08;;;6.10;70.58
62926;BME280;55732;52.248;-0.844;2023-04-27T01:57:54;100959.51;;;6.08;70.79
62926;BME280;55732;52.248;-0.844;2023-04-27T02:00:19;100963.33;;;6.07;70.67
62926;BME280;55732;52.248;-0.844;2023-04-27T02:02:45;100966.95;;;6.05;70.61
62926;BME280;55732;52.248;-0.844;2023-04-27T02:05:11;100968.50;;;6.05;70.78
62926;BME280;55732;52.248;-0.844;2023-04-27T02:07:36;100971.64;;;6.05;70.63
62926;BME280;55732;52.248;-0.844;2023-04-27T02:10:01;100981.40;;;6.03;70.88
62926;BME280;55732;52.248;-0.844;2023-04-27T02:12:27;100979.95;;;6.00;70.89
62926;BME280;55732;52.248;-0.844;2023-04-27T02:14:52;100977.27;;;5.98;71.01
62926;BME280;55732;52.248;-0.844;2023-04-27T02:17:18;100976.85;;;5.96;70.90
62926;BME280;55732;52.248;-0.844;2023-04-27T02:19:43;100976.10;;;5.93;71.04
62926;BME280;55732;52.248;-0.844;2023-04-27T02:22:08;100978.52;;;5.92;71.06
62926;BME280;55732;52.248;-0.844;2023-04-27T02:24:34;100976.37;;;5.90;71.11
62926;BME280;55732;52.248;-0.844;2023-04-27T02:27:00;100976.55;;;5.90;71.30
62926;BME280;55732;52.248;-0.844;2023-04-27T02:29:29;100973.70;;;5.88;71.27
62926;BME280;55732;52.248;-0.844;2023-04-27T02:31:55;100975.44;;;5.88;71.45
62926;BME280;55732;52.248;-0.844;2023-04-27T02:34:20;100974.24;;;5.89;71.38
62926;BME280;55732;52.248;-0.844;2023-04-27T02:36:45;100975.63;;;5.88;71.42
62926;BME280;55732;52.248;-0.844;2023-04-27T02:39:11;100971.73;;;5.87;71.47
62926;BME280;55732;52.248;-0.844;2023-04-27T02:41:36;100975.87;;;5.85;71.50
62926;BME280;55732;52.248;-0.844;2023-04-27T02:44:02;100975.84;;;5.84;71.59
62926;BME280;55732;52.248;-0.844;2023-04-27T02:46:27;100973.52;;;5.82;71.62
62926;BME280;55732;52.248;-0.844;2023-04-27T02:48:54;100970.00;;;5.81;71.79
62926;BME280;55732;52.248;-0.844;2023-04-27T02:51:19;100964.52;;;5.78;71.83
62926;BME280;55732;52.248;-0.844;2023-04-27T02:53:45;100956.61;;;5.75;71.88
62926;BME280;55732;52.248;-0.844;2023-04-27T02:56:10;100963.89;;;5.73;71.87
62926;BME280;55732;52.248;-0.844;2023-04-27T02:58:35;100967.84;;;5.71;72.03
62926;BME280;55732;52.248;-0.844;2023-04-27T03:01:01;100963.06;;;5.69;72.07
62926;BME280;55732;52.248;-0.844;2023-04-27T03:03:26;100961.63;;;5.67;72.06
62926;BME280;55732;52.248;-0.844;2023-04-27T03:05:52;100960.39;;;5.65;72.08
62926;BME280;55732;52.248;-0.844;2023-04-27T03:08:17;100958.42;;;5.64;72.14
62926;BME280;55732;52.248;-0.844;2023-04-27T03:10:43;100961.02;;;5.63;72.26
62926;BME280;55732;52.248;-0.844;2023-04-27T03:13:08;100955.38;;;5.61;72.32
62926;BME280;55732;52.248;-0.844;2023-04-27T03:15:33;100952.01;;;5.59;72.36
62926;BME280;55732;52.248;-0.844;2023-04-27T03:17:59;100959.32;;;5.58;72.44
62926;BME280;55732;52.248;-0.844;2023-04-27T03:20:24;100947.91;;;5.57;72.37
62926;BME280;55732;52.248;-0.844;2023-04-27T03:22:50;100944.05;;;5.56;72.59
62926;BME280;55732;52.248;-0.844;2023-04-27T03:25:16;100946.79;;;5.53;72.65
62926;BME280;55732;52.248;-0.844;2023-04-27T03:27:41;100945.36;;;5.52;72.73
62926;BME280;55732;52.248;-0.844;2023-04-27T03:30:08;100946.55;;;5.51;72.79
62926;BME280;55732;52.248;-0.844;2023-04-27T03:32:34;100949.87;;;5.51;72.82
62926;BME280;55732;52.248;-0.844;2023-04-27T03:34:59;100945.86;;;5.51;72.86
62926;BME280;55732;52.248;-0.844;2023-04-27T03:37:25;100943.92;;;5.50;73.16
62926;BME280;55732;52.248;-0.844;2023-04-27T03:39:51;100950.20;;;5.50;73.02
62926;BME280;55732;52.248;-0.844;2023-04-27T03:42:17;100950.69;;;5.49;72.95
62926;BME280;55732;52.248;-0.844;2023-04-27T03:44:42;100943.33;;;5.48;73.03
62926;BME280;55732;52.248;-0.844;2023-04-27T03:47:07;100933.34;;;5.47;72.96
62926;BME280;55732;52.248;-0.844;2023-04-27T03:49:34;100933.52;;;5.47;73.17
62926;BME280;55732;52.248;-0.844;2023-04-27T03:52:00;100928.12;;;5.47;73.34
62926;BME280;55732;52.248;-0.844;2023-04-27T03:54:25;100929.15;;;5.47;73.44
62926;BME280;55732;52.248;-0.844;2023-04-27T03:56:51;100923.31;;;5.44;73.55
62926;BME280;55732;52.248;-0.844;2023-04-27T03:59:16;100920.16;;;5.43;73.64
62926;BME280;55732;52.248;-0.844;2023-04-27T04:01:42;100921.55;;;5.42;73.65
62926;BME280;55732;52.248;-0.844;2023-04-27T04:04:07;100916.46;;;5.41;73.69
62926;BME280;55732;52.248;-0.844;2023-04-27T04:06:33;100912.23;;;5.40;73.82
62926;BME280;55732;52.248;-0.844;2023-04-27T04:08:58;100905.80;;;5.40;73.83
62926;BME280;55732;52.248;-0.844;2023-04-27T04:11:24;100907.87;;;5.40;74.01
62926;BME280;55732;52.248;-0.844;2023-04-27T04:13:50;100911.19;;;5.40;74.27
62926;BME280;55732;52.248;-0.844;2023-04-27T04:16:15;100909.77;;;5.39;74.20
62926;BME280;55732;52.248;-0.844;2023-04-27T04:18:41;100907.30;;;5.38;74.10
62926;BME280;55732;52.248;-0.844;2023-04-27T04:21:08;100906.59;;;5.38;74.17
62926;BME280;55732;52.248;-0.844;2023-04-27T04:23:34;100905.38;;;5.38;74.33
62926;BME280;55732;52.248;-0.844;2023-04-27T04:26:00;100900.80;;;5.37;74.39
62926;BME280;55732;52.248;-0.844;2023-04-27T04:28:26;100896.99;;;5.38;74.43
62926;BME280;55732;52.248;-0.844;2023-04-27T04:30:51;100892.63;;;5.38;74.41
62926;BME280;55732;52.248;-0.844;2023-04-27T04:33:17;100892.05;;;5.36;74.55
62926;BME280;55732;52.248;-0.844;2023-04-27T04:35:43;100893.27;;;5.36;74.77
62926;BME280;55732;52.248;-0.844;2023-04-27T04:38:09;100894.15;;;5.36;74.73
62926;BME280;55732;52.248;-0.844;2023-04-27T04:40:37;100896.90;;;5.35;74.76
62926;BME280;55732;52.248;-0.844;2023-04-27T04:43:02;100897.75;;;5.34;74.91
62926;BME280;55732;52.248;-0.844;2023-04-27T04:45:28;100899.98;;;5.32;75.09
62926;BME280;55732;52.248;-0.844;2023-04-27T04:47:54;100901.20;;;5.32;75.18
62926;BME280;55732;52.248;-0.844;2023-04-27T04:50:19;100906.13;;;5.34;75.21
62926;BME280;55732;52.248;-0.844;2023-04-27T04:52:45;100906.52;;;5.35;75.28
62926;BME280;55732;52.248;-0.844;2023-04-27T04:55:10;100902.02;;;5.37;75.24
62926;BME280;55732;52.248;-0.844;2023-04-27T04:57:35;100904.71;;;5.39;75.37
62926;BME280;55732;52.248;-0.844;2023-04-27T05:00:01;100896.95;;;5.44;75.23
62926;BME280;55732;52.248;-0.844;2023-04-27T05:02:28;100893.63;;;5.50;75.27
62926;BME280;55732;52.248;-0.844;2023-04-27T05:04:53;100886.60;;;5.56;75.21
62926;BME280;55732;52.248;-0.844;2023-04-27T05:07:21;100883.45;;;5.63;75.31
62926;BME280;55732;52.248;-0.844;2023-04-27T05:09:46;100874.80;;;5.74;75.04
62926;BME280;55732;52.248;-0.844;2023-04-27T05:12:11;100867.96;;;5.88;74.88
62926;BME280;55732;52.248;-0.844;2023-04-27T05:14:37;100872.33;;;6.03;74.68
62926;BME280;55732;52.248;-0.844;2023-04-27T05:17:02;100875.09;;;6.17;74.45
62926;BME280;55732;52.248;-0.844;2023-04-27T05:19:28;100881.25;;;6.36;74.34
62926;BME280;55732;52.248;-0.844;2023-04-27T05:21:54;100882.05;;;6.77;73.78
62926;BME280;55732;52.248;-0.844;2023-04-27T05:24:19;100887.78;;;7.22;72.87
62926;BME280;55732;52.248;-0.844;2023-04-27T05:26:45;100883.96;;;7.81;71.85
62926;BME280;55732;52.248;-0.844;2023-04-27T05:29:10;100889.60;;;8.44;70.44
62926;BME280;55732;52.248;-0.844;2023-04-27T05:31:36;100892.55;;;8.87;69.65
62926;BME280;55732;52.248;-0.844;2023-04-27T05:34:01;100893.96;;;9.23;68.37
62926;BME280;55732;52.248;-0.844;2023-04-27T05:36:27;100888.27;;;9.55;67.31
62926;BME280;55732;52.248;-0.844;2023-04-27T05:38:54;100887.96;;;9.62;66.74
62926;BME280;55732;52.248;-0.844;2023-04-27T05:41:22;100886.52;;;9.58;66.37
62926;BME280;55732;52.248;-0.844;2023-04-27T05:43:48;100885.83;;;9.58;66.27
62926;BME280;55732;52.248;-0.844;2023-04-27T05:46:13;100883.33;;;9.51;66.14
62926;BME280;55732;52.248;-0.844;2023-04-27T05:48:39;100886.61;;;9.26;66.36
62926;BME280;55732;52.248;-0.844;2023-04-27T05:51:05;100890.70;;;9.13;66.77
62926;BME280;55732;52.248;-0.844;2023-04-27T05:53:32;100888.63;;;9.15;67.07
62926;BME280;55732;52.248;-0.844;2023-04-27T05:55:58;100887.61;;;9.18;66.84
62926;BME280;55732;52.248;-0.844;2023-04-27T05:58:27;100892.02;;;9.20;66.75
62926;BME280;55732;52.248;-0.844;2023-04-27T06:00:53;100890.46;;;9.24;66.73
62926;BME280;55732;52.248;-0.844;2023-04-27T06:03:19;100885.88;;;9.43;66.45
62926;BME280;55732;52.248;-0.844;2023-04-27T06:05:44;100881.98;;;9.60;66.19
62926;BME280;55732;52.248;-0.844;2023-04-27T06:08:11;100881.30;;;9.89;65.63
62926;BME280;55732;52.248;-0.844;2023-04-27T06:10:40;100881.77;;;10.09;65.02
62926;BME280;55732;52.248;-0.844;2023-04-27T06:13:05;100882.13;;;10.10;64.84
62926;BME280;55732;52.248;-0.844;2023-04-27T06:15:31;100877.11;;;10.23;64.74
62926;BME280;55732;52.248;-0.844;2023-04-27T06:17:56;100878.77;;;10.38;64.65
62926;BME280;55732;52.248;-0.844;2023-04-27T06:20:22;100873.16;;;10.42;64.18
62926;BME280;55732;52.248;-0.844;2023-04-27T06:22:47;100870.86;;;10.40;64.30
62926;BME280;55732;52.248;-0.844;2023-04-27T06:25:12;100867.48;;;10.30;63.97
62926;BME280;55732;52.248;-0.844;2023-04-27T06:27:38;100866.30;;;10.11;64.27
62926;BME280;55732;52.248;-0.844;2023-04-27T06:30:04;100863.83;;;9.81;64.73
62926;BME280;55732;52.248;-0.844;2023-04-27T06:32:30;100860.50;;;9.57;65.59
62926;BME280;55732;52.248;-0.844;2023-04-27T06:34:55;100862.31;;;9.40;66.19
62926;BME280;55732;52.248;-0.844;2023-04-27T06:37:21;100860.83;;;9.31;66.52
62926;BME280;55732;52.248;-0.844;2023-04-27T06:39:46;100866.37;;;9.21;66.57
62926;BME280;55732;52.248;-0.844;2023-04-27T06:42:12;100865.95;;;9.15;67.14
62926;BME280;55732;52.248;-0.844;2023-04-27T06:44:37;100865.90;;;9.10;67.25
62926;BME280;55732;52.248;-0.844;2023-04-27T06:47:03;100867.38;;;9.16;67.39
62926;BME280;55732;52.248;-0.844;2023-04-27T06:49:28;100867.97;;;9.24;67.43
62926;BME280;55732;52.248;-0.844;2023-04-27T06:51:54;100862.60;;;9.31;67.63
62926;BME280;55732;52.248;-0.844;2023-04-27T06:54:20;100859.46;;;9.36;67.54
62926;BME280;55732;52.248;-0.844;2023-04-27T06:56:45;100859.87;;;9.42;67.44
62926;BME280;55732;52.248;-0.844;2023-04-27T06:59:11;100856.78;;;9.52;67.09
62926;BME280;55732;52.248;-0.844;2023-04-27T07:01:36;100851.77;;;9.63;66.99
62926;BME280;55732;52.248;-0.844;2023-04-27T07:04:05;100856.42;;;9.77;66.71
62926;BME280;55732;52.248;-0.844;2023-04-27T07:06:31;100860.54;;;9.87;66.44
62926;BME280;55732;52.248;-0.844;2023-04-27T07:08:57;100863.36;;;9.92;66.09
62926;BME280;55732;52.248;-0.844;2023-04-27T07:11:23;100863.02;;;9.91;66.03
62926;BME280;55732;52.248;-0.844;2023-04-27T07:13:49;100868.30;;;9.91;66.00
62926;BME280;55732;52.248;-0.844;2023-04-27T07:16:15;100863.37;;;9.89;66.19
62926;BME280;55732;52.248;-0.844;2023-04-27T07:18:40;100864.58;;;9.86;66.30
62926;BME280;55732;52.248;-0.844;2023-04-27T07:21:06;100865.61;;;9.85;66.38
62926;BME280;55732;52.248;-0.844;2023-04-27T07:23:31;100863.50;;;9.84;66.50
62926;BME280;55732;52.248;-0.844;2023-04-27T07:25:57;100866.17;;;9.90;66.39
62926;BME280;55732;52.248;-0.844;2023-04-27T07:28:23;100865.65;;;9.89;65.81
62926;BME280;55732;52.248;-0.844;2023-04-27T07:30:48;100860.39;;;9.91;65.88
62926;BME280;55732;52.248;-0.844;2023-04-27T07:33:14;100864.66;;;10.00;65.84
62926;BME280;55732;52.248;-0.844;2023-04-27T07:35:40;100869.82;;;10.13;65.51
62926;BME280;55732;52.248;-0.844;2023-04-27T07:38:06;100867.09;;;10.25;65.52
62926;BME280;55732;52.248;-0.844;2023-04-27T07:40:32;100867.16;;;10.37;65.25
62926;BME280;55732;52.248;-0.844;2023-04-27T07:42:59;100857.67;;;10.44;64.61
62926;BME280;55732;52.248;-0.844;2023-04-27T07:45:24;100857.35;;;10.48;64.63
62926;BME280;55732;52.248;-0.844;2023-04-27T07:47:57;100862.11;;;10.54;64.13
62926;BME280;55732;52.248;-0.844;2023-04-27T07:50:25;100862.46;;;10.54;64.11
62926;BME280;55732;52.248;-0.844;2023-04-27T07:52:52;100855.93;;;10.51;63.78
62926;BME280;55732;52.248;-0.844;2023-04-27T07:55:18;100852.25;;;10.54;63.86
62926;BME280;55732;52.248;-0.844;2023-04-27T07:57:45;100850.70;;;10.65;63.71
62926;BME280;55732;52.248;-0.844;2023-04-27T08:00:11;100851.26;;;10.75;63.43
62926;BME280;55732;52.248;-0.844;2023-04-27T08:02:37;100848.98;;;10.84;63.16
62926;BME280;55732;52.248;-0.844;2023-04-27T08:05:02;100850.60;;;11.02;62.62
62926;BME280;55732;52.248;-0.844;2023-04-27T08:07:28;100847.62;;;11.23;61.92
62926;BME280;55732;52.248;-0.844;2023-04-27T08:09:54;100846.38;;;11.43;61.51
62926;BME280;55732;52.248;-0.844;2023-04-27T08:12:19;100852.54;;;11.62;61.46
62926;BME280;55732;52.248;-0.844;2023-04-27T08:14:45;100858.53;;;11.83;61.12
62926;BME280;55732;52.248;-0.844;2023-04-27T08:17:11;100856.19;;;12.06;60.49
62926;BME280;55732;52.248;-0.844;2023-04-27T08:19:37;100857.88;;;12.27;59.38
62926;BME280;55732;52.248;-0.844;2023-04-27T08:22:02;100857.00;;;12.26;59.06
62926;BME280;55732;52.248;-0.844;2023-04-27T08:24:33;100857.73;;;12.24;58.85
62926;BME280;55732;52.248;-0.844;2023-04-27T08:26:58;100853.15;;;12.15;58.45
62926;BME280;55732;52.248;-0.844;2023-04-27T08:29:24;100856.70;;;12.06;58.19
62926;BME280;55732;52.248;-0.844;2023-04-27T08:31:50;100854.27;;;11.96;58.23
62926;BME280;55732;52.248;-0.844;2023-04-27T08:34:15;100849.52;;;11.87;58.16
62926;BME280;55732;52.248;-0.844;2023-04-27T08:36:42;100843.89;;;11.83;58.26
62926;BME280;55732;52.248;-0.844;2023-04-27T08:39:07;100840.50;;;11.94;58.10
62926;BME280;55732;52.248;-0.844;2023-04-27T08:41:33;100841.25;;;12.32;57.83
62926;BME280;55732;52.248;-0.844;2023-04-27T08:43:58;100833.83;;;12.97;56.21
62926;BME280;55732;52.248;-0.844;2023-04-27T08:46:24;100826.60;;;13.62;54.88
62926;BME280;55732;52.248;-0.844;2023-04-27T08:48:53;100818.59;;;14.42;53.35
62926;BME280;55732;52.248;-0.844;2023-04-27T08:51:20;100811.18;;;15.44;51.39
62926;BME280;55732;52.248;-0.844;2023-04-27T08:53:51;100808.50;;;16.78;47.92
62926;BME280;55732;52.248;-0.844;2023-04-27T08:56:18;100803.40;;;16.99;45.77
62926;BME280;55732;52.248;-0.844;2023-04-27T08:58:44;100803.20;;;16.92;46.07
62926;BME280;55732;52.248;-0.844;2023-04-27T09:01:09;100800.40;;;16.91;45.16
62926;BME280;55732;52.248;-0.844;2023-04-27T09:03:36;100786.85;;;17.27;44.19
62926;BME280;55732;52.248;-0.844;2023-04-27T09:06:02;100784.40;;;18.93;42.97
62926;BME280;55732;52.248;-0.844;2023-04-27T09:08:28;100787.05;;;19.21;41.12
62926;BME280;55732;52.248;-0.844;2023-04-27T09:10:54;100783.64;;;18.90;40.97
62926;BME280;55732;52.248;-0.844;2023-04-27T09:13:20;100787.95;;;18.54;41.82
62926;BME280;55732;52.248;-0.844;2023-04-27T09:15:47;100788.79;;;18.08;42.46
62926;BME280;55732;52.248;-0.844;2023-04-27T09:18:19;100787.04;;;17.62;42.66
62926;BME280;55732;52.248;-0.844;2023-04-27T09:20:49;100784.88;;;17.06;42.83
62926;BME280;55732;52.248;-0.844;2023-04-27T09:23:28;100789.14;;;16.45;42.75
62926;BME280;55732;52.248;-0.844;2023-04-27T09:25:56;100794.08;;;15.79;43.42
62926;BME280;55732;52.248;-0.844;2023-04-27T09:28:24;100786.72;;;15.33;44.05
62926;BME280;55732;52.248;-0.844;2023-04-27T09:30:56;100782.48;;;15.00;44.63
62926;BME280;55732;52.248;-0.844;2023-04-27T09:33:23;100779.03;;;14.72;45.46
62926;BME280;55732;52.248;-0.844;2023-04-27T09:35:49;100773.11;;;14.53;46.10
62926;BME280;55732;52.248;-0.844;2023-04-27T09:38:17;100769.83;;;14.32;46.48
62926;BME280;55732;52.248;-0.844;2023-04-27T09:40:43;100771.87;;;14.12;46.28
62926;BME280;55732;52.248;-0.844;2023-04-27T09:43:08;100772.45;;;13.94;46.28
62926;BME280;55732;52.248;-0.844;2023-04-27T09:45:35;100774.90;;;13.81;46.21
62926;BME280;55732;52.248;-0.844;2023-04-27T09:48:03;100772.77;;;13.63;46.08
62926;BME280;55732;52.248;-0.844;2023-04-27T09:50:30;100764.80;;;13.49;46.12
62926;BME280;55732;52.248;-0.844;2023-04-27T09:52:56;100766.15;;;13.37;46.88
62926;BME280;55732;52.248;-0.844;2023-04-27T09:55:26;100758.42;;;13.33;47.62
62926;BME280;55732;52.248;-0.844;2023-04-27T09:58:17;100752.27;;;13.29;47.85
62926;BME280;55732;52.248;-0.844;2023-04-27T10:03:50;100742.71;;;13.30;48.30
62926;BME280;55732;52.248;-0.844;2023-04-27T10:06:50;100731.58;;;13.30;48.49
62926;BME280;55732;52.248;-0.844;2023-04-27T10:09:23;100728.39;;;13.29;47.75
62926;BME280;55732;52.248;-0.844;2023-04-27T10:11:50;100722.75;;;13.27;47.41
62926;BME280;55732;52.248;-0.844;2023-04-27T10:14:18;100722.23;;;13.26;47.52
62926;BME280;55732;52.248;-0.844;2023-04-27T10:16:46;100724.69;;;13.28;46.72
62926;BME280;55732;52.248;-0.844;2023-04-27T10:19:12;100735.80;;;13.32;46.65
62926;BME280;55732;52.248;-0.844;2023-04-27T10:21:53;100738.59;;;13.35;46.83
62926;BME280;55732;52.248;-0.844;2023-04-27T10:24:36;100736.16;;;13.30;46.38
62926;BME280;55732;52.248;-0.844;2023-04-27T10:27:07;100733.71;;;13.28;46.28
62926;BME280;55732;52.248;-0.844;2023-04-27T10:29:44;100733.52;;;13.30;46.33
62926;BME280;55732;52.248;-0.844;2023-04-27T10:32:11;100732.09;;;13.32;45.96
62926;BME280;55732;52.248;-0.844;2023-04-27T10:34:37;100724.10;;;13.33;46.22
62926;BME280;55732;52.248;-0.844;2023-04-27T10:37:05;100722.66;;;13.35;46.11
62926;BME280;55732;52.248;-0.844;2023-04-27T10:39:42;100720.02;;;13.34;46.51
62926;BME280;55732;52.248;-0.844;2023-04-27T10:42:09;100714.55;;;13.33;47.06
62926;BME280;55732;52.248;-0.844;2023-04-27T10:44:36;100711.37;;;13.33;47.48
62926;BME280;55732;52.248;-0.844;2023-04-27T10:47:13;100711.74;;;13.32;46.26
62926;BME280;55732;52.248;-0.844;2023-04-27T10:49:39;100705.77;;;13.29;45.80
62926;BME280;55732;52.248;-0.844;2023-04-27T10:52:05;100704.55;;;13.26;45.71
62926;BME280;55732;52.248;-0.844;2023-04-27T10:54:31;100699.08;;;13.25;46.14
62926;BME280;55732;52.248;-0.844;2023-04-27T10:57:08;100701.21;;;13.24;45.97
62926;BME280;55732;52.248;-0.844;2023-04-27T10:59:50;100700.05;;;13.14;45.75
62926;BME280;55732;52.248;-0.844;2023-04-27T11:02:16;100696.10;;;13.01;45.97
62926;BME280;55732;52.248;-0.844;2023-04-27T11:04:42;100688.79;;;12.88;46.40
62926;BME280;55732;52.248;-0.844;2023-04-27T11:07:08;100679.86;;;12.80;46.48
62926;BME280;55732;52.248;-0.844;2023-04-27T11:09:38;100675.10;;;12.77;46.81
62926;BME280;55732;52.248;-0.844;2023-04-27T11:12:11;100665.20;;;12.78;46.84
62926;BME280;55732;52.248;-0.844;2023-04-27T11:14:37;100657.60;;;12.79;46.45
62926;BME280;55732;52.248;-0.844;2023-04-27T11:17:03;100649.10;;;12.81;46.68
62926;BME280;55732;52.248;-0.844;2023-04-27T11:19:29;100656.79;;;12.91;46.48
62926;BME280;55732;52.248;-0.844;2023-04-27T11:22:05;100660.05;;;12.99;46.18
62926;BME280;55732;52.248;-0.844;2023-04-27T11:24:34;100660.31;;;13.10;46.19
62926;BME280;55732;52.248;-0.844;2023-04-27T11:26:59;100654.73;;;13.21;45.95
62926;BME280;55732;52.248;-0.844;2023-04-27T11:29:24;100648.11;;;13.31;45.13
62926;BME280;55732;52.248;-0.844;2023-04-27T11:31:50;100648.73;;;13.36;44.98
62926;BME280;55732;52.248;-0.844;2023-04-27T11:34:23;100644.58;;;13.44;45.20
62926;BME280;55732;52.248;-0.844;2023-04-27T11:36:57;100643.55;;;13.55;45.05
62926;BME280;55732;52.248;-0.844;2023-04-27T11:39:37;100640.70;;;13.57;44.06
62926;BME280;55732;52.248;-0.844;2023-04-27T11:42:21;100639.05;;;13.48;43.68
62926;BME280;55732;52.248;-0.844;2023-04-27T11:44:55;100633.69;;;13.37;44.27
62926;BME280;55732;52.248;-0.844;2023-04-27T11:47:23;100631.28;;;13.32;44.62
62926;BME280;55732;52.248;-0.844;2023-04-27T11:49:51;100633.02;;;13.33;44.69
62926;BME280;55732;52.248;-0.844;2023-04-27T11:52:19;100633.56;;;13.32;44.94
62926;BME280;55732;52.248;-0.844;2023-04-27T11:54:52;100631.52;;;13.26;44.97
62926;BME280;55732;52.248;-0.844;2023-04-27T11:57:28;100630.72;;;13.18;45.22
62926;BME280;55732;52.248;-0.844;2023-04-27T11:59:55;100621.95;;;13.09;45.63
62926;BME280;55732;52.248;-0.844;2023-04-27T12:02:21;100614.10;;;13.00;45.71
62926;BME280;55732;52.248;-0.844;2023-04-27T12:04:50;100607.95;;;12.96;45.61
62926;BME280;55732;52.248;-0.844;2023-04-27T12:07:16;100601.08;;;12.96;45.34
62926;BME280;55732;52.248;-0.844;2023-04-27T12:09:42;100604.09;;;12.94;45.53
62926;BME280;55732;52.248;-0.844;2023-04-27T12:12:09;100605.20;;;12.88;45.23
62926;BME280;55732;52.248;-0.844;2023-04-27T12:14:35;100600.65;;;12.85;45.78
62926;BME280;55732;52.248;-0.844;2023-04-27T12:17:00;100601.73;;;12.84;45.96
62926;BME280;55732;52.248;-0.844;2023-04-27T12:19:26;100597.64;;;12.85;46.47
62926;BME280;55732;52.248;-0.844;2023-04-27T12:21:51;100599.87;;;12.92;46.34
62926;BME280;55732;52.248;-0.844;2023-04-27T12:24:18;100598.80;;;12.92;46.28
62926;BME280;55732;52.248;-0.844;2023-04-27T12:26:44;100593.70;;;12.88;46.61
62926;BME280;55732;52.248;-0.844;2023-04-27T12:29:11;100593.07;;;12.83;47.08
62926;BME280;55732;52.248;-0.844;2023-04-27T12:31:36;100595.41;;;12.78;47.42
62926;BME280;55732;52.248;-0.844;2023-04-27T12:34:02;100596.73;;;12.71;47.34
62926;BME280;55732;52.248;-0.844;2023-04-27T12:36:27;100593.59;;;12.67;47.48
62926;BME280;55732;52.248;-0.844;2023-04-27T12:38:57;100598.89;;;12.66;47.86
62926;BME280;55732;52.248;-0.844;2023-04-27T12:41:23;100598.88;;;12.68;48.19
62926;BME280;55732;52.248;-0.844;2023-04-27T12:43:49;100598.14;;;12.72;48.09
62926;BME280;55732;52.248;-0.844;2023-04-27T12:46:14;100595.94;;;12.79;47.95
62926;BME280;55732;52.248;-0.844;2023-04-27T12:48:40;100595.89;;;12.84;47.84